createdAt,value
2023-03-19T00:04:16.693Z,82.23
2023-03-19T00:09:28.689Z,74.43
2023-03-19T00:14:33.939Z,87.53
2023-03-19T00:19:41.124Z,80.37
2023-03-19T00:25:00.874Z,83.83
2023-03-19T00:30:09.331Z,82.00
2023-03-19T00:35:21.682Z,83.30
2023-03-19T00:40:25.752Z,87.30
2023-03-19T00:45:30.990Z,76.80
2023-03-19T00:50:37.396Z,80.23
2023-03-19T00:55:44.412Z,75.87
2023-03-19T01:00:49.746Z,79.90
2023-03-19T01:06:03.258Z,70.73
2023-03-19T01:11:19.032Z,83.50
2023-03-19T01:16:26.292Z,76.23
2023-03-19T01:21:33.096Z,70.97
2023-03-19T01:26:45.927Z,72.20
2023-03-19T01:32:04.358Z,75.10
2023-03-19T01:37:23.593Z,70.50
2023-03-19T01:42:30.917Z,81.33
2023-03-19T01:47:58.068Z,75.07
2023-03-19T01:53:24.402Z,76.73
2023-03-19T01:58:38.373Z,75.87
2023-03-19T02:04:11.521Z,73.03
2023-03-19T02:09:18.840Z,73.40
2023-03-19T02:14:24.934Z,67.33
2023-03-19T02:19:41.306Z,68.43
2023-03-19T02:25:00.269Z,67.87
2023-03-19T02:30:27.927Z,67.13
2023-03-19T02:35:37.710Z,70.87
2023-03-19T02:40:50.607Z,73.97
2023-03-19T02:46:01.199Z,69.63
2023-03-19T02:51:06.174Z,72.03
2023-03-19T02:56:15.203Z,73.73
2023-03-19T03:01:34.091Z,67.53
2023-03-19T03:06:43.667Z,60.07
2023-03-19T03:11:55.975Z,63.57
2023-03-19T03:17:02.029Z,56.47
2023-03-19T03:22:15.806Z,59.77
2023-03-19T03:27:28.914Z,65.20
2023-03-19T03:32:39.163Z,65.53
2023-03-19T03:37:46.585Z,61.37
2023-03-19T03:42:55.711Z,58.50
2023-03-19T03:48:04.561Z,54.60
2023-03-19T03:53:13.224Z,56.10
2023-03-19T03:58:20.290Z,52.03
2023-03-19T04:03:27.314Z,49.23
2023-03-19T04:08:33.329Z,56.63
2023-03-19T04:13:38.341Z,56.23
2023-03-19T04:18:46.553Z,55.33
2023-03-19T04:23:52.578Z,52.93
2023-03-19T04:29:03.832Z,57.87
2023-03-19T04:34:17.145Z,54.80
2023-03-19T04:39:22.244Z,46.33
2023-03-19T04:44:30.148Z,46.77
2023-03-19T04:49:39.932Z,48.40
2023-03-19T04:54:45.036Z,48.43
2023-03-19T04:59:49.361Z,46.53
2023-03-19T05:04:56.787Z,51.17
2023-03-19T05:10:01.515Z,49.43
2023-03-19T05:15:15.202Z,46.80
2023-03-19T05:20:34.512Z,47.50
2023-03-19T05:25:47.126Z,42.53
2023-03-19T05:31:04.728Z,51.23
2023-03-19T05:36:21.207Z,45.50
2023-03-19T05:41:40.840Z,50.27
2023-03-19T05:46:46.773Z,46.90
2023-03-19T05:52:04.748Z,47.63
2023-03-19T05:57:18.471Z,43.90
2023-03-19T06:02:35.672Z,38.10
2023-03-19T06:07:59.255Z,39.47
2023-03-19T06:13:30.759Z,40.07
2023-03-19T06:18:56.508Z,41.30
2023-03-19T06:24:18.815Z,29.90
2023-03-19T06:29:25.650Z,28.83
2023-03-19T06:34:39.018Z,26.90
2023-03-19T06:39:52.127Z,23.37
2023-03-19T06:45:01.635Z,20.47
2023-03-19T06:50:15.007Z,22.27
2023-03-19T06:55:31.577Z,30.80
2023-03-19T07:00:49.862Z,31.90
2023-03-19T07:05:56.172Z,23.70
2023-03-19T07:11:07.657Z,23.60
2023-03-19T07:16:11.992Z,23.60
2023-03-19T07:21:19.257Z,20.97
2023-03-19T07:26:26.720Z,22.67
2023-03-19T07:31:32.806Z,27.93
2023-03-19T07:36:38.456Z,27.20
2023-03-19T07:42:01.740Z,50.33
2023-03-19T07:47:16.102Z,22.53
2023-03-19T07:52:30.557Z,139.20
2023-03-19T07:57:36.341Z,69.17
2023-03-19T08:02:42.948Z,38.57
2023-03-19T08:07:47.554Z,36.60
2023-03-19T08:12:56.330Z,24.77
2023-03-19T08:18:01.474Z,26.80
2023-03-19T08:23:07.257Z,23.77
2023-03-19T08:28:18.852Z,25.93
2023-03-19T08:33:39.234Z,23.50
2023-03-19T08:38:46.996Z,31.93
2023-03-19T08:43:57.109Z,25.93
2023-03-19T08:49:16.278Z,23.07
2023-03-19T08:54:28.408Z,22.83
2023-03-19T09:00:27.557Z,22.87
2023-03-19T09:05:45.043Z,21.07
2023-03-19T09:17:18.668Z,22.60
2023-03-19T09:22:33.483Z,23.40
2023-03-19T09:27:38.496Z,23.37
2023-03-19T09:32:43.157Z,22.07
2023-03-19T09:37:55.191Z,23.50
2023-03-19T09:43:19.443Z,21.13
2023-03-19T09:48:36.969Z,21.07
2023-03-19T09:53:52.325Z,20.53
2023-03-19T09:58:57.894Z,19.73
2023-03-19T10:10:17.623Z,21.13
2023-03-19T10:15:34.114Z,19.50
2023-03-19T10:20:48.373Z,20.40
2023-03-19T10:26:04.291Z,19.70
2023-03-19T10:31:28.602Z,20.03
2023-03-19T10:36:36.964Z,22.60
2023-03-19T10:41:53.430Z,30.37
2023-03-19T10:47:21.140Z,25.50
2023-03-19T10:52:34.938Z,19.90
2023-03-19T10:57:46.537Z,21.83
2023-03-19T11:02:55.515Z,20.50
2023-03-19T11:08:07.916Z,26.97
2023-03-19T11:13:37.522Z,23.13
2023-03-19T11:18:43.623Z,20.90
2023-03-19T11:23:58.172Z,23.73
2023-03-19T11:29:08.091Z,20.97
2023-03-19T11:34:25.783Z,21.17
2023-03-19T11:39:34.593Z,21.67
2023-03-19T11:45:07.613Z,18.87
2023-03-19T11:50:24.844Z,22.87
2023-03-19T11:55:37.986Z,26.13
2023-03-19T12:00:57.323Z,17.40
2023-03-19T12:06:22.987Z,16.67
2023-03-19T12:11:38.186Z,20.23
2023-03-19T12:17:04.920Z,19.70
2023-03-19T12:22:20.845Z,17.20
2023-03-19T12:27:35.705Z,19.60
2023-03-19T12:33:07.540Z,17.57
2023-03-19T12:38:24.478Z,20.30
2023-03-19T12:43:34.281Z,18.37
2023-03-19T12:48:45.825Z,19.87
2023-03-19T12:53:56.791Z,16.30
2023-03-19T12:59:09.989Z,15.97
2023-03-19T13:04:22.894Z,16.80
2023-03-19T13:09:35.121Z,15.07
2023-03-19T13:15:00.612Z,15.60
2023-03-19T13:20:25.059Z,17.60
2023-03-19T13:25:38.270Z,17.17
2023-03-19T13:31:09.041Z,17.63
2023-03-19T13:36:20.699Z,15.03
2023-03-19T13:42:01.190Z,15.70
2023-03-19T13:47:50.991Z,17.87
2023-03-19T13:53:34.159Z,15.53
2023-03-19T13:58:56.371Z,16.50
2023-03-19T14:04:07.035Z,16.00
2023-03-19T14:09:52.528Z,16.87
2023-03-19T14:15:03.513Z,17.40
2023-03-19T14:20:37.113Z,16.23
2023-03-19T14:26:06.464Z,16.57
2023-03-19T14:38:15.765Z,17.70
2023-03-19T14:44:18.858Z,16.77
2023-03-19T14:50:09.209Z,18.83
2023-03-19T14:55:46.224Z,16.47
2023-03-19T15:01:03.747Z,16.83
2023-03-19T15:06:19.364Z,17.43
2023-03-19T15:11:41.173Z,17.00
2023-03-19T15:16:59.248Z,19.30
2023-03-19T15:22:17.693Z,16.07
2023-03-19T15:27:28.536Z,16.73
2023-03-19T15:32:54.250Z,19.23
2023-03-19T15:38:18.055Z,16.47
2023-03-19T15:43:27.888Z,17.10
2023-03-19T15:48:50.454Z,17.27
2023-03-19T15:53:55.834Z,18.17
2023-03-19T15:59:16.135Z,18.70
2023-03-19T16:04:38.581Z,21.43
2023-03-19T16:09:49.413Z,18.67
2023-03-19T16:15:00.863Z,32.17
2023-03-19T16:20:22.763Z,47.37
2023-03-19T16:25:32.249Z,51.47
2023-03-19T16:30:53.261Z,43.57
2023-03-19T16:36:07.296Z,33.20
2023-03-19T16:41:29.246Z,30.40
2023-03-19T16:46:39.289Z,28.73
2023-03-19T16:51:47.140Z,38.80
2023-03-19T16:56:53.997Z,38.30
2023-03-19T17:02:10.553Z,32.20
2023-03-19T17:07:19.229Z,42.73
2023-03-19T17:12:30.421Z,31.97
2023-03-19T17:17:36.279Z,30.97
2023-03-19T17:22:43.483Z,25.20
2023-03-19T17:27:51.816Z,32.63
2023-03-19T17:33:02.047Z,29.67
2023-03-19T17:38:06.566Z,29.53
2023-03-19T17:43:16.609Z,28.97
2023-03-19T17:48:26.009Z,29.87
2023-03-19T17:53:45.365Z,25.27
2023-03-19T17:58:53.407Z,23.90
2023-03-19T18:04:04.939Z,29.30
2023-03-19T18:09:20.506Z,30.67
2023-03-19T18:14:24.694Z,29.23
2023-03-19T18:19:34.660Z,26.23
2023-03-19T18:24:40.208Z,22.23
2023-03-19T18:29:45.414Z,20.97
2023-03-19T18:34:56.700Z,24.10
2023-03-19T18:40:05.642Z,26.87
2023-03-19T18:51:58.710Z,26.03
2023-03-19T18:57:11.091Z,22.60
2023-03-19T19:02:37.999Z,22.63
2023-03-19T19:07:47.111Z,23.43
2023-03-19T19:13:01.417Z,27.27
2023-03-19T19:18:19.329Z,27.97
2023-03-19T19:23:30.769Z,29.87
2023-03-19T19:28:41.535Z,23.57
2023-03-19T19:33:49.679Z,29.93
2023-03-19T19:51:19.672Z,21.97
2023-03-19T19:56:26.836Z,27.17
2023-03-19T20:01:30.569Z,28.57
2023-03-19T20:06:36.032Z,24.63
2023-03-19T20:11:40.930Z,30.50
2023-03-19T20:16:44.655Z,32.40
2023-03-19T20:21:48.428Z,25.33
2023-03-19T20:26:53.224Z,58.80
2023-03-19T20:31:58.265Z,21.60
2023-03-19T20:37:02.141Z,45.37
2023-03-19T20:42:09.766Z,46.57
2023-03-19T20:47:18.169Z,72.60
2023-03-19T20:52:21.892Z,43.40
2023-03-19T20:57:30.945Z,69.00
2023-03-19T21:02:34.454Z,61.60
2023-03-19T21:07:37.933Z,92.70
2023-03-19T21:12:42.787Z,89.57
2023-03-19T21:17:46.567Z,115.67
2023-03-19T21:22:53.746Z,146.40
2023-03-19T21:28:03.339Z,79.93
2023-03-19T21:33:06.778Z,119.87
2023-03-19T21:38:10.174Z,91.13
2023-03-19T21:43:21.534Z,72.77
2023-03-19T21:48:30.185Z,33.83
2023-03-19T21:53:34.122Z,51.63
2023-03-19T21:58:39.029Z,89.10
2023-03-19T22:03:42.476Z,76.57
2023-03-19T22:08:48.324Z,38.20
2023-03-19T22:13:53.518Z,36.03
2023-03-19T22:18:57.754Z,36.47
2023-03-19T22:24:01.146Z,56.20
2023-03-19T22:29:08.124Z,79.53
2023-03-19T22:34:16.604Z,61.63
2023-03-19T22:39:20.170Z,54.83
2023-03-19T22:44:29.377Z,66.30
2023-03-19T22:49:33.566Z,46.23
2023-03-19T22:54:36.964Z,61.57
2023-03-19T22:59:41.862Z,81.77
2023-03-19T23:04:45.328Z,75.87
2023-03-19T23:09:49.476Z,41.17
2023-03-19T23:14:56.809Z,70.33
2023-03-19T23:20:00.741Z,64.73
2023-03-19T23:25:04.363Z,83.57
2023-03-19T23:30:19.903Z,81.97
2023-03-19T23:35:25.031Z,53.93
2023-03-19T23:40:32.081Z,66.30
2023-03-19T23:45:40.077Z,45.97
2023-03-19T23:50:43.431Z,95.43
2023-03-19T23:55:48.525Z,52.80
